sensor_id;sensor_type;location;lat;lon;timestamp;pressure;altitude;pressure_sealevel;temperature;humidity
29169;BME280;16219;42.864;23.360;2024-03-06T00:02:04;95651.28;;;4.05;100.00
29169;BME280;16219;42.864;23.360;2024-03-06T00:04:31;95643.97;;;4.01;100.00
29169;BME280;16219;42.864;23.360;2024-03-06T00:06:58;95644.25;;;4.00;100.00
29169;BME280;16219;42.864;23.360;2024-03-06T00:09:26;95651.78;;;4.07;100.00
29169;BME280;16219;42.864;23.360;2024-03-06T00:11:55;95657.50;;;4.09;100.00
29169;BME280;16219;42.864;23.360;2024-03-06T00:14:22;95652.81;;;4.06;100.00
29169;BME280;16219;42.864;23.360;2024-03-06T00:16:50;95655.09;;;4.17;100.00
29169;BME280;16219;42.864;23.360;2024-03-06T00:19:17;95639.56;;;3.97;100.00
29169;BME280;16219;42.864;23.360;2024-03-06T00:21:44;95659.59;;;4.07;100.00
29169;BME280;16219;42.864;23.360;2024-03-06T00:24:11;95649.41;;;4.10;100.00
29169;BME280;16219;42.864;23.360;2024-03-06T00:26:39;95656.25;;;4.01;100.00
29169;BME280;16219;42.864;23.360;2024-03-06T00:29:08;95656.94;;;4.12;100.00
29169;BME280;16219;42.864;23.360;2024-03-06T00:31:36;95655.88;;;4.18;100.00
29169;BME280;16219;42.864;23.360;2024-03-06T00:34:03;95652.44;;;4.22;100.00
29169;BME280;16219;42.864;23.360;2024-03-06T00:36:30;95654.47;;;4.31;100.00
29169;BME280;16219;42.864;23.360;2024-03-06T00:38:57;95646.59;;;4.36;100.00
29169;BME280;16219;42.864;23.360;2024-03-06T00:41:24;95656.31;;;4.30;100.00
29169;BME280;16219;42.864;23.360;2024-03-06T00:43:51;95634.13;;;4.28;100.00
29169;BME280;16219;42.864;23.360;2024-03-06T00:46:20;95644.31;;;4.29;100.00
29169;BME280;16219;42.864;23.360;2024-03-06T00:48:47;95637.06;;;4.16;100.00
29169;BME280;16219;42.864;23.360;2024-03-06T00:51:14;95647.47;;;4.26;100.00
29169;BME280;16219;42.864;23.360;2024-03-06T00:53:41;95632.97;;;4.10;100.00
29169;BME280;16219;42.864;23.360;2024-03-06T00:56:08;95646.09;;;3.99;100.00
29169;BME280;16219;42.864;23.360;2024-03-06T00:58:35;95646.09;;;3.99;100.00
29169;BME280;16219;42.864;23.360;2024-03-06T01:01:02;95646.84;;;4.05;100.00
29169;BME280;16219;42.864;23.360;2024-03-06T01:03:31;95644.97;;;4.11;100.00
29169;BME280;16219;42.864;23.360;2024-03-06T01:05:58;95639.03;;;4.00;100.00
29169;BME280;16219;42.864;23.360;2024-03-06T01:08:25;95641.31;;;4.07;100.00
29169;BME280;16219;42.864;23.360;2024-03-06T01:10:52;95647.38;;;4.02;100.00
29169;BME280;16219;42.864;23.360;2024-03-06T01:13:19;95635.66;;;3.94;100.00
29169;BME280;16219;42.864;23.360;2024-03-06T01:15:46;95642.47;;;3.95;100.00
29169;BME280;16219;42.864;23.360;2024-03-06T01:18:13;95625.78;;;3.86;100.00
29169;BME280;16219;42.864;23.360;2024-03-06T01:20:42;95636.72;;;3.93;100.00
29169;BME280;16219;42.864;23.360;2024-03-06T01:23:09;95630.53;;;3.84;100.00
29169;BME280;16219;42.864;23.360;2024-03-06T01:25:36;95638.56;;;3.93;100.00
29169;BME280;16219;42.864;23.360;2024-03-06T01:28:03;95641.56;;;3.71;100.00
29169;BME280;16219;42.864;23.360;2024-03-06T01:30:31;95645.22;;;3.70;100.00
29169;BME280;16219;42.864;23.360;2024-03-06T01:32:58;95649.44;;;3.61;100.00
29169;BME280;16219;42.864;23.360;2024-03-06T01:35:25;95647.28;;;3.73;100.00
29169;BME280;16219;42.864;23.360;2024-03-06T01:37:53;95643.84;;;3.83;100.00
29169;BME280;16219;42.864;23.360;2024-03-06T01:40:20;95654.75;;;3.90;100.00
29169;BME280;16219;42.864;23.360;2024-03-06T01:42:47;95651.91;;;3.86;100.00
29169;BME280;16219;42.864;23.360;2024-03-06T01:45:15;95633.22;;;3.69;100.00
29169;BME280;16219;42.864;23.360;2024-03-06T01:47:42;95653.97;;;3.89;100.00
29169;BME280;16219;42.864;23.360;2024-03-06T01:50:09;95651.41;;;3.84;100.00
29169;BME280;16219;42.864;23.360;2024-03-06T01:52:39;95647.78;;;3.80;100.00
29169;BME280;16219;42.864;23.360;2024-03-06T01:55:09;95654.56;;;3.76;100.00
29169;BME280;16219;42.864;23.360;2024-03-06T01:57:38;95649.63;;;3.69;100.00
29169;BME280;16219;42.864;23.360;2024-03-06T02:00:08;95657.25;;;3.66;100.00
29169;BME280;16219;42.864;23.360;2024-03-06T02:02:41;95655.69;;;3.60;100.00
29169;BME280;16219;42.864;23.360;2024-03-06T02:05:08;95658.88;;;3.51;100.00
29169;BME280;16219;42.864;23.360;2024-03-06T02:07:36;95656.72;;;3.64;100.00
29169;BME280;16219;42.864;23.360;2024-03-06T02:10:08;95658.28;;;3.65;100.00
29169;BME280;16219;42.864;23.360;2024-03-06T02:12:38;95664.31;;;3.60;100.00
29169;BME280;16219;42.864;23.360;2024-03-06T02:15:06;95643.97;;;3.62;100.00
29169;BME280;16219;42.864;23.360;2024-03-06T02:17:34;95668.97;;;3.68;100.00
29169;BME280;16219;42.864;23.360;2024-03-06T02:20:01;95668.72;;;3.65;100.00
29169;BME280;16219;42.864;23.360;2024-03-06T02:22:32;95668.19;;;3.68;100.00
29169;BME280;16219;42.864;23.360;2024-03-06T02:24:59;95664.53;;;3.69;100.00
29169;BME280;16219;42.864;23.360;2024-03-06T02:27:26;95673.16;;;3.64;100.00
29169;BME280;16219;42.864;23.360;2024-03-06T02:29:53;95674.97;;;3.64;100.00
29169;BME280;16219;42.864;23.360;2024-03-06T02:32:21;95674.72;;;3.65;100.00
29169;BME280;16219;42.864;23.360;2024-03-06T02:34:50;95681.25;;;3.63;100.00
29169;BME280;16219;42.864;23.360;2024-03-06T02:37:17;95680.50;;;3.52;100.00
29169;BME280;16219;42.864;23.360;2024-03-06T02:39:45;95674.00;;;3.49;100.00
29169;BME280;16219;42.864;23.360;2024-03-06T02:42:12;95672.00;;;3.36;100.00
29169;BME280;16219;42.864;23.360;2024-03-06T02:44:39;95680.06;;;3.35;100.00
29169;BME280;16219;42.864;23.360;2024-03-06T02:47:06;95683.97;;;3.37;100.00
29169;BME280;16219;42.864;23.360;2024-03-06T02:49:33;95680.09;;;3.24;100.00
29169;BME280;16219;42.864;23.360;2024-03-06T02:52:00;95673.03;;;3.30;100.00
29169;BME280;16219;42.864;23.360;2024-03-06T02:54:27;95674.34;;;3.33;100.00
29169;BME280;16219;42.864;23.360;2024-03-06T02:56:56;95682.13;;;3.38;100.00
29169;BME280;16219;42.864;23.360;2024-03-06T02:59:23;95680.56;;;3.42;100.00
29169;BME280;16219;42.864;23.360;2024-03-06T03:01:50;95679.25;;;3.39;100.00
29169;BME280;16219;42.864;23.360;2024-03-06T03:04:17;95681.06;;;3.44;100.00
29169;BME280;16219;42.864;23.360;2024-03-06T03:06:44;95680.84;;;3.40;100.00
29169;BME280;16219;42.864;23.360;2024-03-06T03:09:11;95656.41;;;3.16;100.00
29169;BME280;16219;42.864;23.360;2024-03-06T03:11:39;95678.28;;;3.20;100.00
29169;BME280;16219;42.864;23.360;2024-03-06T03:14:09;95670.94;;;3.27;100.00
29169;BME280;16219;42.864;23.360;2024-03-06T03:16:36;95683.47;;;3.30;100.00
29169;BME280;16219;42.864;23.360;2024-03-06T03:19:03;95680.06;;;3.35;100.00
29169;BME280;16219;42.864;23.360;2024-03-06T03:21:30;95664.41;;;3.35;100.00
29169;BME280;16219;42.864;23.360;2024-03-06T03:23:57;95684.47;;;3.44;100.00
29169;BME280;16219;42.864;23.360;2024-03-06T03:26:24;95670.97;;;3.32;100.00
29169;BME280;16219;42.864;23.360;2024-03-06T03:28:51;95661.34;;;3.28;100.00
29169;BME280;16219;42.864;23.360;2024-03-06T03:31:20;95679.25;;;3.44;100.00
29169;BME280;16219;42.864;23.360;2024-03-06T03:33:47;95686.81;;;3.46;100.00
29169;BME280;16219;42.864;23.360;2024-03-06T03:36:14;95686.81;;;3.41;100.00
29169;BME280;16219;42.864;23.360;2024-03-06T03:38:41;95694.44;;;3.32;100.00
29169;BME280;16219;42.864;23.360;2024-03-06T03:41:08;95694.34;;;3.47;100.00
29169;BME280;16219;42.864;23.360;2024-03-06T03:43:35;95696.97;;;3.53;100.00
29169;BME280;16219;42.864;23.360;2024-03-06T03:46:02;95689.66;;;3.49;100.00
29169;BME280;16219;42.864;23.360;2024-03-06T03:48:31;95702.44;;;3.46;100.00
29169;BME280;16219;42.864;23.360;2024-03-06T03:51:01;95701.13;;;3.54;100.00
29169;BME280;16219;42.864;23.360;2024-03-06T03:53:29;95701.59;;;3.66;100.00
29169;BME280;16219;42.864;23.360;2024-03-06T03:55:56;95703.41;;;3.70;100.00
29169;BME280;16219;42.864;23.360;2024-03-06T03:58:23;95702.31;;;3.76;100.00
29169;BME280;16219;42.864;23.360;2024-03-06T04:00:50;95702.84;;;3.79;100.00
29169;BME280;16219;42.864;23.360;2024-03-06T04:03:18;95699.97;;;3.75;100.00
29169;BME280;16219;42.864;23.360;2024-03-06T04:05:48;95710.13;;;3.82;100.00
29169;BME280;16219;42.864;23.360;2024-03-06T04:08:15;95715.06;;;3.88;100.00
29169;BME280;16219;42.864;23.360;2024-03-06T04:10:42;95704.13;;;3.81;100.00
29169;BME280;16219;42.864;23.360;2024-03-06T04:13:11;95711.38;;;3.89;100.00
29169;BME280;16219;42.864;23.360;2024-03-06T04:15:38;95722.31;;;3.96;100.00
29169;BME280;16219;42.864;23.360;2024-03-06T04:18:05;95708.75;;;3.94;100.00
29169;BME280;16219;42.864;23.360;2024-03-06T04:20:32;95717.09;;;3.96;100.00
29169;BME280;16219;42.864;23.360;2024-03-06T04:23:01;95725.13;;;4.05;100.00
29169;BME280;16219;42.864;23.360;2024-03-06T04:25:28;95722.25;;;4.07;100.00
29169;BME280;16219;42.864;23.360;2024-03-06T04:27:55;95728.50;;;4.11;100.00
29169;BME280;16219;42.864;23.360;2024-03-06T04:30:22;95737.88;;;4.17;100.00
29169;BME280;16219;42.864;23.360;2024-03-06T04:32:48;95732.63;;;4.22;100.00
29169;BME280;16219;42.864;23.360;2024-03-06T04:35:15;95738.91;;;4.21;100.00
29169;BME280;16219;42.864;23.360;2024-03-06T04:37:41;95708.66;;;4.10;100.00
29169;BME280;16219;42.864;23.360;2024-03-06T04:40:11;95738.34;;;4.24;100.00
29169;BME280;16219;42.864;23.360;2024-03-06T04:42:40;95735.19;;;4.27;100.00
29169;BME280;16219;42.864;23.360;2024-03-06T04:45:10;95742.97;;;4.32;100.00
29169;BME280;16219;42.864;23.360;2024-03-06T04:47:38;95745.06;;;4.35;100.00
29169;BME280;16219;42.864;23.360;2024-03-06T04:50:08;95741.94;;;4.33;100.00
29169;BME280;16219;42.864;23.360;2024-03-06T04:52:36;95746.38;;;4.38;100.00
29169;BME280;16219;42.864;23.360;2024-03-06T04:55:04;95750.22;;;4.45;100.00
29169;BME280;16219;42.864;23.360;2024-03-06T04:57:33;95747.06;;;4.48;100.00
29169;BME280;16219;42.864;23.360;2024-03-06T05:00:01;95751.22;;;4.49;100.00
29169;BME280;16219;42.864;23.360;2024-03-06T05:02:31;95747.03;;;4.54;100.00
29169;BME280;16219;42.864;23.360;2024-03-06T05:05:00;95754.28;;;4.62;100.00
29169;BME280;16219;42.864;23.360;2024-03-06T05:07:28;95748.56;;;4.60;100.00
29169;BME280;16219;42.864;23.360;2024-03-06T05:09:55;95749.81;;;4.67;100.00
29169;BME280;16219;42.864;23.360;2024-03-06T05:12:22;95754.22;;;4.72;100.00
29169;BME280;16219;42.864;23.360;2024-03-06T05:14:51;95754.66;;;4.79;100.00
29169;BME280;16219;42.864;23.360;2024-03-06T05:17:18;95755.13;;;4.86;100.00
29169;BME280;16219;42.864;23.360;2024-03-06T05:19:45;95755.63;;;4.93;100.00
29169;BME280;16219;42.864;23.360;2024-03-06T05:22:13;95751.34;;;5.03;100.00
29169;BME280;16219;42.864;23.360;2024-03-06T05:24:40;95758.66;;;5.00;100.00
29169;BME280;16219;42.864;23.360;2024-03-06T05:27:07;95742.19;;;5.00;100.00
29169;BME280;16219;42.864;23.360;2024-03-06T05:29:35;95753.81;;;5.18;100.00
29169;BME280;16219;42.864;23.360;2024-03-06T05:32:04;95765.50;;;5.25;100.00
29169;BME280;16219;42.864;23.360;2024-03-06T05:34:32;95762.56;;;5.32;100.00
29169;BME280;16219;42.864;23.360;2024-03-06T05:36:59;95765.13;;;5.37;100.00
29169;BME280;16219;42.864;23.360;2024-03-06T05:39:26;95771.38;;;5.41;100.00
29169;BME280;16219;42.864;23.360;2024-03-06T05:41:54;95774.94;;;5.50;100.00
29169;BME280;16219;42.864;23.360;2024-03-06T05:44:21;95772.78;;;5.58;100.00
29169;BME280;16219;42.864;23.360;2024-03-06T05:46:48;95774.78;;;5.66;100.00
29169;BME280;16219;42.864;23.360;2024-03-06T05:49:17;95765.34;;;5.65;100.00
29169;BME280;16219;42.864;23.360;2024-03-06T05:51:44;95757.84;;;5.58;100.00
29169;BME280;16219;42.864;23.360;2024-03-06T05:54:11;95765.75;;;5.77;100.00
29169;BME280;16219;42.864;23.360;2024-03-06T05:56:38;95780.66;;;5.76;100.00
29169;BME280;16219;42.864;23.360;2024-03-06T05:59:05;95778.13;;;5.71;100.00
29169;BME280;16219;42.864;23.360;2024-03-06T06:01:33;95776.22;;;5.77;100.00
29169;BME280;16219;42.864;23.360;2024-03-06T06:04:01;95753.44;;;5.77;100.00
29169;BME280;16219;42.864;23.360;2024-03-06T06:06:29;95767.94;;;5.94;100.00
29169;BME280;16219;42.864;23.360;2024-03-06T06:08:56;95787.41;;;6.07;100.00
29169;BME280;16219;42.864;23.360;2024-03-06T06:11:23;95783.47;;;6.09;100.00
29169;BME280;16219;42.864;23.360;2024-03-06T06:13:50;95781.56;;;6.15;100.00
29169;BME280;16219;42.864;23.360;2024-03-06T06:16:17;95784.75;;;6.12;100.00
29169;BME280;16219;42.864;23.360;2024-03-06T06:18:44;95782.56;;;6.19;100.00
29169;BME280;16219;42.864;23.360;2024-03-06T06:21:12;95774.56;;;6.29;100.00
29169;BME280;16219;42.864;23.360;2024-03-06T06:23:40;95786.72;;;6.20;100.00
29169;BME280;16219;42.864;23.360;2024-03-06T06:26:08;95788.31;;;6.21;100.00
29169;BME280;16219;42.864;23.360;2024-03-06T06:28:36;95797.19;;;6.20;100.00
29169;BME280;16219;42.864;23.360;2024-03-06T06:31:03;95794.16;;;6.13;100.00
29169;BME280;16219;42.864;23.360;2024-03-06T06:33:30;95792.03;;;6.15;100.00
29169;BME280;16219;42.864;23.360;2024-03-06T06:35:57;95788.84;;;6.18;100.00
29169;BME280;16219;42.864;23.360;2024-03-06T06:38:24;95779.59;;;6.25;100.00
29169;BME280;16219;42.864;23.360;2024-03-06T06:40:52;95788.00;;;6.41;100.00
29169;BME280;16219;42.864;23.360;2024-03-06T06:43:19;95786.88;;;6.47;100.00
29169;BME280;16219;42.864;23.360;2024-03-06T06:45:46;95784.28;;;6.47;100.00
29169;BME280;16219;42.864;23.360;2024-03-06T06:48:13;95790.63;;;6.60;100.00
29169;BME280;16219;42.864;23.360;2024-03-06T06:50:40;95798.00;;;6.58;100.00
29169;BME280;16219;42.864;23.360;2024-03-06T06:53:07;95796.88;;;6.64;100.00
29169;BME280;16219;42.864;23.360;2024-03-06T06:55:35;95783.06;;;6.59;100.00
29169;BME280;16219;42.864;23.360;2024-03-06T06:58:03;95798.13;;;6.67;100.00
29169;BME280;16219;42.864;23.360;2024-03-06T07:00:30;95801.19;;;6.74;100.00
29169;BME280;16219;42.864;23.360;2024-03-06T07:02:58;95782.63;;;6.70;100.00
29169;BME280;16219;42.864;23.360;2024-03-06T07:05:26;95794.22;;;6.83;100.00
29169;BME280;16219;42.864;23.360;2024-03-06T07:07:53;95799.25;;;6.98;100.00
29169;BME280;16219;42.864;23.360;2024-03-06T07:10:21;95798.88;;;7.05;100.00
29169;BME280;16219;42.864;23.360;2024-03-06T07:12:49;95799.16;;;7.04;100.00
29169;BME280;16219;42.864;23.360;2024-03-06T07:15:17;95806.63;;;7.29;100.00
29169;BME280;16219;42.864;23.360;2024-03-06T07:17:44;95797.41;;;7.45;100.00
29169;BME280;16219;42.864;23.360;2024-03-06T07:20:11;95803.44;;;7.46;100.00
29169;BME280;16219;42.864;23.360;2024-03-06T07:22:39;95795.47;;;7.37;100.00
29169;BME280;16219;42.864;23.360;2024-03-06T07:25:06;95800.13;;;7.40;100.00
29169;BME280;16219;42.864;23.360;2024-03-06T07:27:33;95797.22;;;7.42;100.00
29169;BME280;16219;42.864;23.360;2024-03-06T07:30:02;95777.41;;;7.49;100.00
29169;BME280;16219;42.864;23.360;2024-03-06T07:32:32;95795.72;;;7.82;100.00
29169;BME280;16219;42.864;23.360;2024-03-06T07:34:59;95790.94;;;7.84;100.00
29169;BME280;16219;42.864;23.360;2024-03-06T07:37:26;95786.44;;;7.85;100.00
29169;BME280;16219;42.864;23.360;2024-03-06T07:39:53;95784.13;;;7.97;100.00
29169;BME280;16219;42.864;23.360;2024-03-06T07:42:20;95782.97;;;8.03;100.00
29169;BME280;16219;42.864;23.360;2024-03-06T07:44:47;95786.06;;;7.91;100.00
29169;BME280;16219;42.864;23.360;2024-03-06T07:47:14;95776.91;;;7.89;100.00
29169;BME280;16219;42.864;23.360;2024-03-06T07:49:42;95786.34;;;8.04;100.00
29169;BME280;16219;42.864;23.360;2024-03-06T07:52:10;95785.16;;;8.10;100.00
29169;BME280;16219;42.864;23.360;2024-03-06T07:54:37;95786.41;;;8.26;100.00
29169;BME280;16219;42.864;23.360;2024-03-06T07:57:05;95790.19;;;8.47;100.00
29169;BME280;16219;42.864;23.360;2024-03-06T07:59:32;95783.09;;;8.34;100.00
29169;BME280;16219;42.864;23.360;2024-03-06T08:01:59;95780.06;;;8.55;100.00
29169;BME280;16219;42.864;23.360;2024-03-06T08:04:26;95784.38;;;8.73;100.00
29169;BME280;16219;42.864;23.360;2024-03-06T08:06:55;95780.56;;;9.01;100.00
29169;BME280;16219;42.864;23.360;2024-03-06T08:09:22;95781.19;;;9.30;100.00
29169;BME280;16219;42.864;23.360;2024-03-06T08:11:51;95781.56;;;9.45;100.00
29169;BME280;16219;42.864;23.360;2024-03-06T08:14:20;95787.94;;;9.44;100.00
29169;BME280;16219;42.864;23.360;2024-03-06T08:16:47;95778.66;;;9.56;100.00
29169;BME280;16219;42.864;23.360;2024-03-06T08:19:14;95781.41;;;9.73;100.00
29169;BME280;16219;42.864;23.360;2024-03-06T08:21:41;95778.47;;;9.83;100.00
29169;BME280;16219;42.864;23.360;2024-03-06T08:24:09;95769.81;;;9.91;100.00
29169;BME280;16219;42.864;23.360;2024-03-06T08:26:36;95778.16;;;10.24;100.00
29169;BME280;16219;42.864;23.360;2024-03-06T08:29:03;95772.44;;;10.48;100.00
29169;BME280;16219;42.864;23.360;2024-03-06T08:31:31;95772.75;;;10.56;100.00
29169;BME280;16219;42.864;23.360;2024-03-06T08:33:58;95772.91;;;10.68;100.00
29169;BME280;16219;42.864;23.360;2024-03-06T08:36:25;95775.84;;;10.92;100.00
29169;BME280;16219;42.864;23.360;2024-03-06T08:38:52;95769.94;;;10.95;100.00
29169;BME280;16219;42.864;23.360;2024-03-06T08:41:20;95770.22;;;11.20;100.00
29169;BME280;16219;42.864;23.360;2024-03-06T08:43:47;95769.91;;;11.30;100.00
29169;BME280;16219;42.864;23.360;2024-03-06T08:46:14;95770.63;;;11.48;100.00
29169;BME280;16219;42.864;23.360;2024-03-06T08:48:41;95765.91;;;11.62;100.00
29169;BME280;16219;42.864;23.360;2024-03-06T08:51:08;95697.38;;;11.19;100.00
29169;BME280;16219;42.864;23.360;2024-03-06T08:53:37;95709.53;;;11.49;100.00
29169;BME280;16219;42.864;23.360;2024-03-06T08:56:05;95770.94;;;12.14;100.00
29169;BME280;16219;42.864;23.360;2024-03-06T08:58:34;95766.03;;;12.34;100.00
29169;BME280;16219;42.864;23.360;2024-03-06T09:01:01;95763.91;;;12.48;100.00
29169;BME280;16219;42.864;23.360;2024-03-06T09:05:56;95760.69;;;12.42;100.00
29169;BME280;16219;42.864;23.360;2024-03-06T09:08:25;95678.66;;;12.00;100.00
29169;BME280;16219;42.864;23.360;2024-03-06T09:11:00;95754.00;;;12.57;100.00
29169;BME280;16219;42.864;23.360;2024-03-06T09:13:28;95664.16;;;12.07;100.00
29169;BME280;16219;42.864;23.360;2024-03-06T09:15:56;95755.38;;;12.84;100.00
29169;BME280;16219;42.864;23.360;2024-03-06T09:18:24;95754.09;;;13.02;100.00
29169;BME280;16219;42.864;23.360;2024-03-06T09:26:28;95697.66;;;12.57;100.00
29169;BME280;16219;42.864;23.360;2024-03-06T09:40:36;95743.78;;;13.92;100.00
29169;BME280;16219;42.864;23.360;2024-03-06T09:50:51;95732.75;;;14.42;94.83
29169;BME280;16219;42.864;23.360;2024-03-06T09:53:21;95738.06;;;14.42;90.68
29169;BME280;16219;42.864;23.360;2024-03-06T10:07:28;95713.03;;;14.28;87.04
29169;BME280;16219;42.864;23.360;2024-03-06T10:15:11;95641.16;;;14.20;83.56
29169;BME280;16219;42.864;23.360;2024-03-06T10:23:02;95710.06;;;13.92;83.54
29169;BME280;16219;42.864;23.360;2024-03-06T10:34:00;95699.03;;;13.90;81.21
29169;BME280;16219;42.864;23.360;2024-03-06T10:42:07;95702.13;;;13.92;89.85
29169;BME280;16219;42.864;23.360;2024-03-06T10:47:18;95693.22;;;14.25;85.42
29169;BME280;16219;42.864;23.360;2024-03-06T10:49:48;95685.41;;;14.16;81.84
29169;BME280;16219;42.864;23.360;2024-03-06T10:55:11;95643.50;;;14.10;80.73
29169;BME280;16219;42.864;23.360;2024-03-06T11:06:08;95619.41;;;14.15;76.95
29169;BME280;16219;42.864;23.360;2024-03-06T11:20:17;95558.03;;;13.36;74.74
29169;BME280;16219;42.864;23.360;2024-03-06T11:28:38;95653.31;;;13.57;81.72
29169;BME280;16219;42.864;23.360;2024-03-06T11:34:04;95663.84;;;13.08;88.93
29169;BME280;16219;42.864;23.360;2024-03-06T11:36:34;95599.00;;;12.23;94.63
29169;BME280;16219;42.864;23.360;2024-03-06T11:39:04;95616.50;;;12.15;98.63
29169;BME280;16219;42.864;23.360;2024-03-06T11:41:47;95668.78;;;12.31;100.00
29169;BME280;16219;42.864;23.360;2024-03-06T11:44:17;95674.97;;;12.14;100.00
29169;BME280;16219;42.864;23.360;2024-03-06T11:46:47;95677.56;;;12.01;100.00
29169;BME280;16219;42.864;23.360;2024-03-06T11:49:15;95687.50;;;11.75;100.00
29169;BME280;16219;42.864;23.360;2024-03-06T11:51:44;95691.13;;;11.62;100.00
29169;BME280;16219;42.864;23.360;2024-03-06T11:54:12;95624.56;;;11.09;100.00
29169;BME280;16219;42.864;23.360;2024-03-06T11:56:40;95687.34;;;11.42;100.00
29169;BME280;16219;42.864;23.360;2024-03-06T11:59:07;95692.22;;;11.31;100.00
29169;BME280;16219;42.864;23.360;2024-03-06T12:01:37;95675.91;;;11.20;100.00
29169;BME280;16219;42.864;23.360;2024-03-06T12:04:04;95676.88;;;11.16;100.00
29169;BME280;16219;42.864;23.360;2024-03-06T12:06:33;95681.47;;;10.89;100.00
29169;BME280;16219;42.864;23.360;2024-03-06T12:09:02;95669.53;;;10.83;100.00
29169;BME280;16219;42.864;23.360;2024-03-06T12:11:30;95662.56;;;10.52;100.00
29169;BME280;16219;42.864;23.360;2024-03-06T12:13:57;95665.53;;;10.51;100.00
29169;BME280;16219;42.864;23.360;2024-03-06T12:16:24;95657.94;;;10.49;100.00
29169;BME280;16219;42.864;23.360;2024-03-06T12:18:56;95646.59;;;10.49;100.00
29169;BME280;16219;42.864;23.360;2024-03-06T12:21:27;95646.59;;;10.66;100.00
29169;BME280;16219;42.864;23.360;2024-03-06T12:24:05;95648.19;;;11.06;100.00
29169;BME280;16219;42.864;23.360;2024-03-06T12:26:32;95634.38;;;11.38;100.00
29169;BME280;16219;42.864;23.360;2024-03-06T12:29:06;95651.59;;;11.74;100.00
29169;BME280;16219;42.864;23.360;2024-03-06T12:31:35;95625.34;;;11.98;100.00
29169;BME280;16219;42.864;23.360;2024-03-06T12:34:04;95630.22;;;12.30;100.00
29169;BME280;16219;42.864;23.360;2024-03-06T12:36:32;95622.97;;;12.39;100.00
29169;BME280;16219;42.864;23.360;2024-03-06T12:39:01;95625.16;;;12.58;100.00
29169;BME280;16219;42.864;23.360;2024-03-06T12:41:29;95631.38;;;12.86;100.00
29169;BME280;16219;42.864;23.360;2024-03-06T12:43:56;95629.09;;;13.09;100.00
29169;BME280;16219;42.864;23.360;2024-03-06T12:46:23;95591.69;;;12.98;100.00
29169;BME280;16219;42.864;23.360;2024-03-06T12:48:52;95622.16;;;13.17;100.00
29169;BME280;16219;42.864;23.360;2024-03-06T12:51:20;95623.28;;;13.28;100.00
29169;BME280;16219;42.864;23.360;2024-03-06T12:53:47;95614.22;;;13.17;100.00
29169;BME280;16219;42.864;23.360;2024-03-06T12:56:14;95623.06;;;13.33;100.00
29169;BME280;16219;42.864;23.360;2024-03-06T12:58:42;95529.53;;;12.59;100.00
29169;BME280;16219;42.864;23.360;2024-03-06T13:01:19;95588.00;;;12.66;100.00
29169;BME280;16219;42.864;23.360;2024-03-06T13:03:48;95582.22;;;12.52;100.00
29169;BME280;16219;42.864;23.360;2024-03-06T13:06:18;95624.97;;;12.75;100.00
29169;BME280;16219;42.864;23.360;2024-03-06T13:09:00;95578.56;;;12.44;100.00
29169;BME280;16219;42.864;23.360;2024-03-06T13:11:27;95617.94;;;12.91;100.00
29169;BME280;16219;42.864;23.360;2024-03-06T13:13:54;95620.69;;;13.07;96.50
29169;BME280;16219;42.864;23.360;2024-03-06T13:18:58;95625.56;;;13.05;100.00
29169;BME280;16219;42.864;23.360;2024-03-06T13:21:27;95613.09;;;13.06;100.00
29169;BME280;16219;42.864;23.360;2024-03-06T13:23:54;95600.72;;;12.97;97.06
29169;BME280;16219;42.864;23.360;2024-03-06T13:26:23;95610.09;;;12.95;96.61
29169;BME280;16219;42.864;23.360;2024-03-06T13:28:50;95600.50;;;12.90;95.67
29169;BME280;16219;42.864;23.360;2024-03-06T13:31:17;95581.75;;;12.83;98.38
29169;BME280;16219;42.864;23.360;2024-03-06T13:36:32;95611.31;;;12.97;100.00
29169;BME280;16219;42.864;23.360;2024-03-06T13:38:59;95601.25;;;12.91;94.14
29169;BME280;16219;42.864;23.360;2024-03-06T13:41:28;95597.53;;;12.92;97.19
29169;BME280;16219;42.864;23.360;2024-03-06T13:43:55;95597.63;;;12.95;100.00
29169;BME280;16219;42.864;23.360;2024-03-06T13:46:22;95605.78;;;12.90;95.41
29169;BME280;16219;42.864;23.360;2024-03-06T13:51:38;95528.31;;;12.57;86.12
29169;BME280;16219;42.864;23.360;2024-03-06T13:54:05;95560.56;;;12.71;91.20
29169;BME280;16219;42.864;23.360;2024-03-06T13:56:33;95591.34;;;12.88;94.14
29169;BME280;16219;42.864;23.360;2024-03-06T13:59:00;95589.78;;;12.87;95.63
29169;BME280;16219;42.864;23.360;2024-03-06T14:01:28;95552.91;;;12.57;100.00
29169;BME280;16219;42.864;23.360;2024-03-06T14:03:55;95589.22;;;12.81;99.88
29169;BME280;16219;42.864;23.360;2024-03-06T14:06:25;95582.94;;;12.73;98.32
29169;BME280;16219;42.864;23.360;2024-03-06T14:08:52;95590.75;;;12.70;100.00
29169;BME280;16219;42.864;23.360;2024-03-06T14:14:03;95590.03;;;12.48;100.00
29169;BME280;16219;42.864;23.360;2024-03-06T14:16:32;95573.25;;;12.44;100.00
29169;BME280;16219;42.864;23.360;2024-03-06T14:18:59;95534.69;;;12.10;100.00
29169;BME280;16219;42.864;23.360;2024-03-06T14:21:27;95515.84;;;11.99;100.00
29169;BME280;16219;42.864;23.360;2024-03-06T14:23:54;95590.91;;;12.40;100.00
29169;BME280;16219;42.864;23.360;2024-03-06T14:26:21;95593.19;;;12.30;100.00
29169;BME280;16219;42.864;23.360;2024-03-06T14:28:48;95591.72;;;12.20;100.00
29169;BME280;16219;42.864;23.360;2024-03-06T14:31:16;95587.06;;;12.17;100.00
29169;BME280;16219;42.864;23.360;2024-03-06T14:33:45;95587.66;;;12.01;100.00
29169;BME280;16219;42.864;23.360;2024-03-06T14:36:12;95600.44;;;11.99;100.00
29169;BME280;16219;42.864;23.360;2024-03-06T14:38:50;95590.13;;;12.07;100.00
29169;BME280;16219;42.864;23.360;2024-03-06T14:41:24;95518.56;;;11.49;100.00